This is the latest recevied weather packets stored in our database for station/object EA1EXV-11. If no packets are shown the sender has not sent any weather packets the latest 10 day(s).
| Time | Temp. | Humidity | Pressure | Rain* | Wind** | Luminosity | Snow |
|---|---|---|---|---|---|---|---|
| 1778178939 | 20° C | 50% | 1010.7 hPa | - | - | - | - |
| 1778178039 | 22.78° C | 47% | 1010.7 hPa | - | - | - | - |
| 1778177139 | 23.33° C | 46% | 1010.6 hPa | - | - | - | - |
| 1778176238 | 22.22° C | 47% | 1010.5 hPa | - | - | - | - |
| 1778175338 | 22.78° C | 45% | 1010.2 hPa | - | - | - | - |
| 1778174438 | 26.67° C | 43% | 1010.4 hPa | - | - | - | - |
| 1778173538 | 26.67° C | 44% | 1010.7 hPa | - | - | - | - |
| 1778172638 | 25.56° C | 47% | 1011 hPa | - | - | - | - |
| 1778171738 | 21.11° C | 51% | 1011.1 hPa | - | - | - | - |
| 1778170837 | 20.56° C | 52% | 1010.9 hPa | - | - | - | - |
| 1778169937 | 21.67° C | 50% | 1010.9 hPa | - | - | - | - |
| 1778169037 | 23.33° C | 49% | 1010.7 hPa | - | - | - | - |
| 1778168137 | 20.56° C | 50% | 1010.7 hPa | - | - | - | - |
| 1778167236 | 21.11° C | 49% | 1010.8 hPa | - | - | - | - |
| 1778166336 | 21.11° C | 48% | 1011 hPa | - | - | - | - |
| 1778165436 | 21.67° C | 46% | 1011.3 hPa | - | - | - | - |
| 1778164536 | 22.78° C | 45% | 1011.4 hPa | - | - | - | - |
| 1778163636 | 24.44° C | 43% | 1011.5 hPa | - | - | - | - |
| 1778162736 | 25.56° C | 44% | 1011.5 hPa | - | - | - | - |
| 1778161836 | 24.44° C | 46% | 1011.5 hPa | - | - | - | - |
| 1778160936 | 21.67° C | 49% | 1011.5 hPa | - | - | - | - |
| 1778160036 | 22.78° C | 47% | 1011.5 hPa | - | - | - | - |
| 1778159135 | 24.44° C | 46% | 1011.5 hPa | - | - | - | - |
| 1778158235 | 25° C | 46% | 1011.7 hPa | - | - | - | - |
| 1778157335 | 26.11° C | 47% | 1011.7 hPa | - | - | - | - |
* Rain since midnight (hover to see other rain measurements)
** Current wind speed in m/s (hover to see current wind gust speed)